createdAt,value
2019-05-01T00:00:37.239Z,100.00
2019-05-01T00:02:29.654Z,100.00
2019-05-01T00:04:23.556Z,100.00
2019-05-01T00:06:00.231Z,100.00
2019-05-01T00:07:36.804Z,100.00
2019-05-01T00:09:12.195Z,100.00
2019-05-01T00:10:47.979Z,100.00
2019-05-01T00:12:23.597Z,100.00
2019-05-01T00:13:59.270Z,100.00
2019-05-01T00:15:36.518Z,100.00
2019-05-01T00:17:11.959Z,100.00
2019-05-01T00:18:47.451Z,100.00
2019-05-01T00:20:22.671Z,100.00
2019-05-01T00:22:08.938Z,100.00
2019-05-01T00:23:56.788Z,100.00
2019-05-01T00:25:33.438Z,100.00
2019-05-01T00:27:13.158Z,100.00
2019-05-01T00:28:54.520Z,100.00
2019-05-01T00:30:30.838Z,100.00
2019-05-01T00:32:06.244Z,100.00
2019-05-01T00:33:44.219Z,100.00
2019-05-01T00:35:23.959Z,100.00
2019-05-01T00:37:01.644Z,100.00
2019-05-01T00:38:37.309Z,100.00
2019-05-01T00:40:20.457Z,100.00
2019-05-01T00:41:55.700Z,100.00
2019-05-01T00:43:45.343Z,100.00
2019-05-01T00:45:17.135Z,100.00
2019-05-01T00:46:52.959Z,100.00
2019-05-01T00:48:28.529Z,100.00
2019-05-01T00:50:04.188Z,100.00
2019-05-01T00:51:39.634Z,100.00
2019-05-01T00:53:15.047Z,100.00
2019-05-01T00:54:52.102Z,100.00
2019-05-01T00:56:35.163Z,100.00
2019-05-01T00:58:34.018Z,100.00
2019-05-01T01:00:28.010Z,100.00
2019-05-01T01:02:12.460Z,100.00
2019-05-01T01:03:47.675Z,100.00
2019-05-01T01:05:23.518Z,100.00
2019-05-01T01:06:58.749Z,100.00
2019-05-01T01:08:35.703Z,100.00
2019-05-01T01:10:10.975Z,100.00
2019-05-01T01:11:46.570Z,100.00
2019-05-01T01:13:21.938Z,100.00
2019-05-01T01:14:57.064Z,100.00
2019-05-01T01:16:32.307Z,100.00
2019-05-01T01:18:10.301Z,100.00
2019-05-01T01:19:45.444Z,100.00
2019-05-01T01:21:21.275Z,100.00
2019-05-01T01:22:59.352Z,100.00
2019-05-01T01:24:37.255Z,100.00
2019-05-01T01:26:13.992Z,100.00
2019-05-01T01:27:49.134Z,100.00
2019-05-01T01:29:24.625Z,100.00
2019-05-01T01:31:00.237Z,100.00
2019-05-01T01:32:38.211Z,100.00
2019-05-01T01:34:16.291Z,100.00
2019-05-01T01:35:51.864Z,100.00
2019-05-01T01:37:27.200Z,100.00
2019-05-01T01:39:02.334Z,100.00
2019-05-01T01:40:37.464Z,100.00
2019-05-01T01:42:13.964Z,100.00
2019-05-01T01:44:03.739Z,100.00
2019-05-01T01:45:44.576Z,100.00
2019-05-01T01:47:19.759Z,100.00
2019-05-01T01:48:55.172Z,100.00
2019-05-01T01:50:30.241Z,100.00
2019-05-01T01:52:05.657Z,100.00
2019-05-01T01:53:40.709Z,100.00
2019-05-01T01:57:49.574Z,100.00
2019-05-01T01:59:26.099Z,100.00
2019-05-01T02:01:26.966Z,100.00
2019-05-01T02:03:04.199Z,100.00
2019-05-01T02:04:53.551Z,100.00
2019-05-01T02:06:28.578Z,100.00
2019-05-01T02:08:03.853Z,100.00
2019-05-01T02:09:39.188Z,100.00
2019-05-01T02:11:14.238Z,100.00
2019-05-01T02:12:49.569Z,100.00
2019-05-01T02:14:24.704Z,100.00
2019-05-01T02:15:59.940Z,100.00
2019-05-01T02:17:35.378Z,100.00
2019-05-01T02:19:10.407Z,100.00
2019-05-01T02:20:45.858Z,100.00
2019-05-01T02:22:21.897Z,100.00
2019-05-01T02:23:57.855Z,100.00
2019-05-01T02:25:35.153Z,100.00
2019-05-01T02:27:17.010Z,100.00
2019-05-01T02:29:06.572Z,100.00
2019-05-01T02:30:44.942Z,100.00
2019-05-01T02:32:20.469Z,100.00
2019-05-01T02:33:55.465Z,100.00
2019-05-01T02:35:30.618Z,100.00
2019-05-01T02:37:09.522Z,100.00
2019-05-01T02:38:44.576Z,100.00
2019-05-01T02:40:53.790Z,100.00
2019-05-01T02:42:30.401Z,100.00
2019-05-01T02:44:23.288Z,100.00
2019-05-01T02:45:59.271Z,100.00
2019-05-01T02:47:36.150Z,100.00
2019-05-01T02:49:14.840Z,100.00
2019-05-01T02:50:50.524Z,100.00
2019-05-01T02:52:27.535Z,100.00
2019-05-01T02:54:02.649Z,100.00
2019-05-01T02:55:43.808Z,100.00
2019-05-01T02:57:20.013Z,100.00
2019-05-01T02:58:55.565Z,100.00
2019-05-01T03:00:30.822Z,100.00
2019-05-01T03:02:06.321Z,100.00
2019-05-01T03:03:41.542Z,100.00
2019-05-01T03:05:17.167Z,100.00
2019-05-01T03:06:52.393Z,100.00
2019-05-01T03:08:27.911Z,100.00
2019-05-01T03:10:03.905Z,100.00
2019-05-01T03:11:40.555Z,100.00
2019-05-01T03:13:15.670Z,100.00
2019-05-01T03:14:52.474Z,100.00
2019-05-01T03:16:27.579Z,100.00
2019-05-01T03:18:21.950Z,100.00
2019-05-01T03:20:02.756Z,100.00
2019-05-01T03:22:08.709Z,100.00
2019-05-01T03:23:51.248Z,100.00
2019-05-01T03:25:26.713Z,100.00
2019-05-01T03:27:01.756Z,100.00
2019-05-01T03:28:36.911Z,100.00
2019-05-01T03:30:13.760Z,100.00
2019-05-01T03:32:14.168Z,100.00
2019-05-01T03:33:26.400Z,100.00
2019-05-01T03:35:01.530Z,100.00
2019-05-01T03:36:36.689Z,100.00
2019-05-01T03:38:12.041Z,100.00
2019-05-01T03:39:47.486Z,100.00
2019-05-01T03:41:22.613Z,100.00
2019-05-01T03:42:57.890Z,100.00
2019-05-01T03:44:34.643Z,100.00
2019-05-01T03:46:10.452Z,100.00
2019-05-01T03:47:46.239Z,100.00
2019-05-01T03:49:21.724Z,100.00
2019-05-01T03:50:56.785Z,100.00
2019-05-01T03:52:34.485Z,100.00
2019-05-01T03:54:09.557Z,100.00
2019-05-01T03:55:44.892Z,100.00
2019-05-01T03:57:23.650Z,100.00
2019-05-01T03:58:59.717Z,100.00
2019-05-01T04:00:46.711Z,100.00
2019-05-01T04:02:38.562Z,100.00
2019-05-01T04:04:16.971Z,100.00
2019-05-01T04:05:52.346Z,100.00
2019-05-01T04:07:27.416Z,100.00
2019-05-01T04:09:02.572Z,100.00
2019-05-01T04:10:42.223Z,100.00
2019-05-01T04:12:16.241Z,100.00
2019-05-01T04:13:54.672Z,100.00
2019-05-01T04:15:30.133Z,100.00
2019-05-01T04:17:20.543Z,100.00
2019-05-01T04:18:55.921Z,100.00
2019-05-01T04:20:31.293Z,100.00
2019-05-01T04:22:11.518Z,100.00
2019-05-01T04:23:48.827Z,100.00
2019-05-01T04:25:29.987Z,100.00
2019-05-01T04:27:07.197Z,100.00
2019-05-01T04:29:13.128Z,100.00
2019-05-01T04:31:16.837Z,100.00
2019-05-01T04:32:53.759Z,100.00
2019-05-01T04:34:35.573Z,100.00
2019-05-01T04:36:17.015Z,100.00
2019-05-01T04:37:53.090Z,100.00
2019-05-01T04:39:31.517Z,100.00
2019-05-01T04:41:07.049Z,100.00
2019-05-01T04:42:47.637Z,100.00
2019-05-01T04:44:22.888Z,100.00
2019-05-01T04:45:58.162Z,100.00
2019-05-01T04:47:33.385Z,100.00
2019-05-01T04:49:10.310Z,100.00
2019-05-01T04:50:48.196Z,100.00
2019-05-01T04:52:23.921Z,100.00
2019-05-01T04:53:59.249Z,100.00
2019-05-01T04:55:34.353Z,100.00
2019-05-01T04:57:10.210Z,100.00
2019-05-01T04:58:48.283Z,100.00
2019-05-01T05:00:23.504Z,100.00
2019-05-01T05:02:03.066Z,100.00
2019-05-01T05:03:38.861Z,100.00
2019-05-01T05:05:14.231Z,100.00
2019-05-01T05:06:49.338Z,100.00
2019-05-01T05:08:24.425Z,100.00
2019-05-01T05:09:59.939Z,100.00
2019-05-01T05:11:48.860Z,100.00
2019-05-01T05:13:31.380Z,100.00
2019-05-01T05:15:38.238Z,100.00
2019-05-01T05:17:18.729Z,100.00
2019-05-01T05:18:53.881Z,100.00
2019-05-01T05:20:28.912Z,100.00
2019-05-01T05:22:04.537Z,100.00
2019-05-01T05:23:40.106Z,100.00
2019-05-01T05:25:15.536Z,100.00
2019-05-01T05:27:00.560Z,100.00
2019-05-01T05:28:44.361Z,100.00
2019-05-01T05:30:26.743Z,100.00
2019-05-01T05:32:04.084Z,100.00
2019-05-01T05:33:39.597Z,100.00
2019-05-01T05:35:15.234Z,100.00
2019-05-01T05:36:54.690Z,100.00
2019-05-01T05:38:54.667Z,100.00
2019-05-01T05:40:31.145Z,100.00
2019-05-01T05:42:09.743Z,100.00
2019-05-01T05:43:45.117Z,100.00
2019-05-01T05:45:21.677Z,100.00
2019-05-01T05:46:58.225Z,100.00
2019-05-01T05:48:33.493Z,100.00
2019-05-01T05:50:10.657Z,100.00
2019-05-01T05:51:52.031Z,100.00
2019-05-01T05:53:29.318Z,100.00
2019-05-01T05:55:22.061Z,100.00
2019-05-01T05:57:02.215Z,100.00
2019-05-01T05:58:59.611Z,100.00
2019-05-01T06:00:48.803Z,100.00
2019-05-01T06:02:39.140Z,100.00
2019-05-01T06:04:48.214Z,100.00
2019-05-01T06:06:39.638Z,100.00
2019-05-01T06:08:18.262Z,100.00
2019-05-01T06:10:18.434Z,100.00
2019-05-01T06:12:14.310Z,100.00
2019-05-01T06:14:06.857Z,100.00
2019-05-01T06:16:03.911Z,100.00
2019-05-01T06:17:47.225Z,100.00
2019-05-01T06:19:28.761Z,100.00
2019-05-01T06:21:16.405Z,100.00
2019-05-01T06:23:15.636Z,100.00
2019-05-01T06:24:54.487Z,100.00
2019-05-01T06:26:37.407Z,100.00
2019-05-01T06:28:09.972Z,100.00
2019-05-01T06:29:45.194Z,100.00
2019-05-01T06:31:23.020Z,100.00
2019-05-01T06:33:04.118Z,100.00
2019-05-01T06:34:41.198Z,100.00
2019-05-01T06:36:19.973Z,100.00
2019-05-01T06:38:21.035Z,100.00
2019-05-01T06:39:53.061Z,100.00
2019-05-01T06:41:33.840Z,100.00
2019-05-01T06:43:12.171Z,100.00
2019-05-01T06:44:52.525Z,100.00
2019-05-01T06:46:42.750Z,100.00
2019-05-01T06:48:20.378Z,100.00
2019-05-01T06:50:18.256Z,100.00
2019-05-01T06:51:56.010Z,100.00
2019-05-01T06:53:36.080Z,100.00
2019-05-01T06:55:10.881Z,100.00
2019-05-01T06:56:54.422Z,100.00
2019-05-01T06:58:29.609Z,100.00
2019-05-01T07:00:09.564Z,100.00
2019-05-01T07:01:47.305Z,100.00
2019-05-01T07:03:22.861Z,100.00
2019-05-01T07:05:01.314Z,100.00
2019-05-01T07:06:36.696Z,100.00
2019-05-01T07:08:24.034Z,100.00
2019-05-01T07:09:51.013Z,100.00
2019-05-01T07:11:26.214Z,100.00
2019-05-01T07:13:04.851Z,100.00
2019-05-01T07:14:38.798Z,100.00
2019-05-01T07:16:13.972Z,100.00
2019-05-01T07:17:49.074Z,100.00
2019-05-01T07:19:43.289Z,100.00
2019-05-01T07:21:18.350Z,100.00
2019-05-01T07:22:54.705Z,100.00
2019-05-01T07:24:31.379Z,100.00
2019-05-01T07:26:13.635Z,100.00
2019-05-01T07:27:47.523Z,100.00
2019-05-01T07:29:24.440Z,100.00
2019-05-01T07:31:09.113Z,100.00
2019-05-01T07:32:44.500Z,100.00
2019-05-01T07:34:26.325Z,100.00
2019-05-01T07:36:02.489Z,100.00
2019-05-01T07:37:38.851Z,100.00
2019-05-01T07:39:14.783Z,100.00
2019-05-01T07:40:52.605Z,100.00
2019-05-01T07:42:36.103Z,100.00
2019-05-01T07:44:43.595Z,100.00
2019-05-01T07:46:56.194Z,100.00
2019-05-01T07:48:41.712Z,100.00
2019-05-01T07:50:15.951Z,100.00
2019-05-01T07:51:52.297Z,100.00
2019-05-01T07:53:30.934Z,100.00
2019-05-01T07:55:06.801Z,100.00
2019-05-01T07:56:44.938Z,100.00
2019-05-01T07:58:20.562Z,100.00
2019-05-01T08:00:02.696Z,100.00
2019-05-01T08:01:54.514Z,100.00
2019-05-01T08:03:29.123Z,100.00
2019-05-01T08:05:04.913Z,100.00
2019-05-01T08:06:41.664Z,100.00
2019-05-01T08:08:17.103Z,100.00
2019-05-01T08:09:59.846Z,100.00
2019-05-01T08:11:39.118Z,100.00
2019-05-01T08:13:12.710Z,100.00
2019-05-01T08:14:52.442Z,100.00
2019-05-01T08:16:25.668Z,100.00
2019-05-01T08:18:14.988Z,100.00
2019-05-01T08:20:00.327Z,100.00
2019-05-01T08:21:56.918Z,100.00
2019-05-01T08:23:30.966Z,100.00
2019-05-01T08:25:15.081Z,100.00
2019-05-01T08:26:49.437Z,100.00
2019-05-01T08:28:31.976Z,100.00
2019-05-01T08:30:36.856Z,100.00
2019-05-01T08:34:13.629Z,100.00
2019-05-01T08:35:48.909Z,100.00
2019-05-01T08:37:29.343Z,100.00
2019-05-01T08:39:13.803Z,100.00
2019-05-01T08:40:50.658Z,100.00
2019-05-01T08:42:29.498Z,100.00
2019-05-01T08:44:04.722Z,100.00
2019-05-01T08:46:01.698Z,100.00
2019-05-01T08:47:46.002Z,100.00
2019-05-01T08:49:29.042Z,100.00
2019-05-01T08:51:04.264Z,100.00
2019-05-01T08:52:42.617Z,100.00
2019-05-01T08:54:18.334Z,100.00
2019-05-01T08:55:56.952Z,100.00
2019-05-01T08:57:34.140Z,100.00
2019-05-01T08:59:09.301Z,100.00
2019-05-01T09:00:48.680Z,100.00
2019-05-01T09:02:28.406Z,100.00
2019-05-01T09:04:12.810Z,100.00
2019-05-01T09:05:43.012Z,100.00
2019-05-01T09:07:23.997Z,100.00
2019-05-01T09:09:02.964Z,100.00
2019-05-01T09:10:38.458Z,100.00
2019-05-01T09:12:13.831Z,100.00
2019-05-01T09:13:48.993Z,100.00
2019-05-01T09:15:28.966Z,100.00
2019-05-01T09:17:04.275Z,100.00
2019-05-01T09:18:39.925Z,100.00
2019-05-01T09:20:18.896Z,100.00
2019-05-01T09:21:58.232Z,100.00
2019-05-01T09:23:38.893Z,100.00
2019-05-01T09:25:18.510Z,100.00
2019-05-01T09:27:14.745Z,100.00
2019-05-01T09:29:00.226Z,100.00
2019-05-01T09:30:42.022Z,100.00
2019-05-01T09:32:18.829Z,100.00
2019-05-01T09:33:59.300Z,100.00
2019-05-01T09:35:40.283Z,100.00
2019-05-01T09:37:17.007Z,100.00
2019-05-01T09:38:56.827Z,100.00
2019-05-01T09:40:35.265Z,100.00
2019-05-01T09:42:11.020Z,100.00
2019-05-01T09:43:46.292Z,100.00
2019-05-01T09:45:22.136Z,100.00
2019-05-01T09:46:58.125Z,100.00
2019-05-01T09:48:38.246Z,100.00
2019-05-01T09:50:13.694Z,100.00
2019-05-01T09:52:06.471Z,100.00
2019-05-01T09:54:05.623Z,100.00
2019-05-01T09:55:54.176Z,100.00
2019-05-01T09:57:29.698Z,100.00
2019-05-01T09:59:12.481Z,100.00
2019-05-01T10:00:48.908Z,100.00
2019-05-01T10:02:26.119Z,100.00
2019-05-01T10:04:05.701Z,100.00
2019-05-01T10:05:42.909Z,100.00
2019-05-01T10:07:24.030Z,100.00
2019-05-01T10:09:04.648Z,100.00
2019-05-01T10:10:45.981Z,100.00
2019-05-01T10:12:26.043Z,100.00
2019-05-01T10:14:05.407Z,100.00
2019-05-01T10:15:46.795Z,100.00
2019-05-01T10:17:27.321Z,100.00
2019-05-01T10:19:05.679Z,100.00
2019-05-01T10:20:43.184Z,100.00
2019-05-01T10:22:22.303Z,100.00
2019-05-01T10:23:57.520Z,100.00
2019-05-01T10:25:42.948Z,100.00
2019-05-01T10:27:30.909Z,100.00
2019-05-01T10:29:25.924Z,100.00
2019-05-01T10:31:11.989Z,100.00
2019-05-01T10:32:57.766Z,100.00
2019-05-01T10:34:43.016Z,100.00
2019-05-01T10:36:34.479Z,100.00
2019-05-01T10:38:14.982Z,100.00
2019-05-01T10:39:58.245Z,100.00
2019-05-01T10:41:40.938Z,100.00
2019-05-01T10:43:16.599Z,100.00
2019-05-01T10:44:57.401Z,100.00
2019-05-01T10:46:33.979Z,100.00
2019-05-01T10:48:10.193Z,100.00
2019-05-01T10:49:46.028Z,100.00
2019-05-01T10:51:24.304Z,100.00
2019-05-01T10:53:03.207Z,100.00
2019-05-01T10:54:46.501Z,100.00
2019-05-01T10:56:33.201Z,100.00
2019-05-01T10:58:25.807Z,100.00
2019-05-01T11:00:06.239Z,100.00
2019-05-01T11:01:55.229Z,100.00
2019-05-01T11:03:32.427Z,100.00
2019-05-01T11:07:10.409Z,100.00
2019-05-01T11:08:43.231Z,100.00
2019-05-01T11:10:26.295Z,100.00
2019-05-01T11:12:02.360Z,100.00
2019-05-01T11:13:37.528Z,100.00
2019-05-01T11:15:18.085Z,100.00
2019-05-01T11:16:53.530Z,100.00
2019-05-01T11:18:37.250Z,100.00
2019-05-01T11:20:15.800Z,100.00
2019-05-01T11:21:52.024Z,100.00
2019-05-01T11:23:30.533Z,100.00
2019-05-01T11:25:06.239Z,100.00
2019-05-01T11:26:44.394Z,100.00
2019-05-01T11:28:20.201Z,100.00
2019-05-01T11:29:55.357Z,100.00
2019-05-01T11:31:52.482Z,100.00
2019-05-01T11:33:56.696Z,100.00
2019-05-01T11:35:51.372Z,100.00
2019-05-01T11:37:45.446Z,100.00
2019-05-01T11:39:36.010Z,100.00
2019-05-01T11:41:14.959Z,100.00
2019-05-01T11:42:53.261Z,100.00
2019-05-01T11:44:29.980Z,100.00
2019-05-01T11:46:16.674Z,100.00
2019-05-01T11:47:51.728Z,100.00
2019-05-01T11:49:28.113Z,100.00
2019-05-01T11:51:08.563Z,100.00
2019-05-01T11:52:45.308Z,100.00
2019-05-01T11:54:22.265Z,100.00
2019-05-01T11:56:06.633Z,100.00
2019-05-01T11:57:45.032Z,100.00
2019-05-01T11:59:29.489Z,100.00
2019-05-01T12:01:14.762Z,100.00
2019-05-01T12:02:51.201Z,100.00
2019-05-01T12:04:29.735Z,100.00
2019-05-01T12:06:05.399Z,100.00
2019-05-01T12:08:05.659Z,100.00
2019-05-01T12:09:41.413Z,100.00
2019-05-01T12:11:19.646Z,100.00
2019-05-01T12:12:55.029Z,100.00
2019-05-01T12:14:30.602Z,100.00
2019-05-01T12:16:16.219Z,100.00
2019-05-01T12:17:56.201Z,100.00
2019-05-01T12:19:31.720Z,100.00
2019-05-01T12:21:08.194Z,100.00
2019-05-01T12:22:43.383Z,100.00
2019-05-01T12:24:22.414Z,100.00
2019-05-01T12:26:18.644Z,100.00
2019-05-01T12:27:53.971Z,100.00
2019-05-01T12:29:31.482Z,100.00
2019-05-01T12:31:14.675Z,100.00
2019-05-01T12:32:50.178Z,100.00
2019-05-01T12:34:36.562Z,98.34
2019-05-01T12:36:11.745Z,94.46
2019-05-01T12:37:48.015Z,94.60
2019-05-01T12:39:24.934Z,87.77
2019-05-01T12:41:20.164Z,96.18
2019-05-01T12:43:01.449Z,100.00
2019-05-01T12:44:52.081Z,97.04
2019-05-01T12:46:41.244Z,95.88
2019-05-01T12:48:17.384Z,100.00
2019-05-01T12:50:00.955Z,100.00
2019-05-01T12:51:42.995Z,99.82
2019-05-01T12:53:47.315Z,97.26
2019-05-01T12:55:53.616Z,88.77
2019-05-01T12:57:35.271Z,96.06
2019-05-01T13:00:08.793Z,100.00
2019-05-01T13:01:42.736Z,100.00
2019-05-01T13:03:24.062Z,99.68
2019-05-01T13:05:29.320Z,95.60
2019-05-01T13:07:38.057Z,94.46
2019-05-01T13:09:10.852Z,96.89
2019-05-01T13:10:45.847Z,96.22
2019-05-01T13:12:23.981Z,95.66
2019-05-01T13:13:59.603Z,100.00
2019-05-01T13:15:36.536Z,95.78
2019-05-01T13:17:11.573Z,98.16
2019-05-01T13:18:48.922Z,93.19
2019-05-01T13:20:24.834Z,94.11
2019-05-01T13:22:05.303Z,88.66
2019-05-01T13:23:42.932Z,88.73
2019-05-01T13:25:21.002Z,88.56
2019-05-01T13:27:10.857Z,92.27
2019-05-01T13:28:59.636Z,94.38
2019-05-01T13:30:46.193Z,91.69
2019-05-01T13:32:51.191Z,92.50
2019-05-01T13:34:28.375Z,93.08
2019-05-01T13:36:05.407Z,84.71
2019-05-01T13:37:42.070Z,84.42
2019-05-01T13:39:17.250Z,88.25
2019-05-01T13:40:55.984Z,86.31
2019-05-01T13:42:33.080Z,91.07
2019-05-01T13:44:10.347Z,86.16
2019-05-01T13:45:55.181Z,88.94
2019-05-01T13:47:35.294Z,90.20
2019-05-01T13:49:12.192Z,90.66
2019-05-01T13:50:48.758Z,95.25
2019-05-01T13:52:24.608Z,91.41
2019-05-01T13:53:59.725Z,92.42
2019-05-01T13:55:38.243Z,95.20
2019-05-01T13:57:14.272Z,86.08
2019-05-01T13:58:52.681Z,86.92
2019-05-01T14:00:28.379Z,87.32
2019-05-01T14:02:03.421Z,88.76
2019-05-01T14:03:41.577Z,85.16
2019-05-01T14:05:16.980Z,87.08
2019-05-01T14:06:57.450Z,85.79
2019-05-01T14:08:38.098Z,84.39
2019-05-01T14:10:13.283Z,83.66
2019-05-01T14:11:51.435Z,82.59
2019-05-01T14:13:31.219Z,79.08
2019-05-01T14:15:14.634Z,76.95
2019-05-01T14:16:50.947Z,74.15
2019-05-01T14:18:35.163Z,77.55
2019-05-01T14:20:28.394Z,73.92
2019-05-01T14:22:37.333Z,76.18
2019-05-01T14:24:31.427Z,78.54
2019-05-01T14:26:10.371Z,78.06
2019-05-01T14:27:56.172Z,80.61
2019-05-01T14:29:31.600Z,78.62
2019-05-01T14:31:12.616Z,74.02
2019-05-01T14:33:26.416Z,72.82
2019-05-01T14:35:18.099Z,77.60
2019-05-01T14:37:03.329Z,75.55
2019-05-01T14:38:38.657Z,79.16
2019-05-01T14:40:16.813Z,85.82
2019-05-01T14:41:59.272Z,81.39
2019-05-01T14:43:40.673Z,85.32
2019-05-01T14:45:17.679Z,85.47
2019-05-01T14:46:52.939Z,83.59
2019-05-01T14:48:31.916Z,80.63
2019-05-01T14:50:08.577Z,77.92
2019-05-01T14:51:44.438Z,79.66
2019-05-01T14:53:21.778Z,79.41
2019-05-01T14:55:00.390Z,86.00
2019-05-01T14:56:38.306Z,86.12
2019-05-01T14:58:19.405Z,92.47
2019-05-01T15:00:00.815Z,94.49
2019-05-01T15:01:40.983Z,97.89
2019-05-01T15:03:16.351Z,95.22
2019-05-01T15:04:58.647Z,97.59
2019-05-01T15:06:36.249Z,96.51
2019-05-01T15:08:18.483Z,94.82
2019-05-01T15:09:58.595Z,91.37
2019-05-01T15:11:34.333Z,95.55
2019-05-01T15:18:18.283Z,96.85
2019-05-01T15:20:02.800Z,97.17
2019-05-01T15:21:39.734Z,93.31
2019-05-01T15:23:18.928Z,99.21
2019-05-01T15:24:55.978Z,100.00
2019-05-01T15:26:32.797Z,98.30
2019-05-01T15:28:09.232Z,97.24
2019-05-01T15:29:49.997Z,100.00
2019-05-01T15:31:27.949Z,100.00
2019-05-01T15:33:06.939Z,99.91
2019-05-01T15:34:50.184Z,100.00
2019-05-01T15:36:27.188Z,100.00
2019-05-01T15:38:02.521Z,100.00
2019-05-01T15:39:43.402Z,100.00
2019-05-01T15:41:40.253Z,100.00
2019-05-01T15:43:42.055Z,100.00
2019-05-01T15:45:17.911Z,100.00
2019-05-01T15:46:55.455Z,100.00
2019-05-01T15:48:31.308Z,100.00
2019-05-01T15:50:07.036Z,100.00
2019-05-01T15:51:44.215Z,100.00
2019-05-01T15:53:22.837Z,100.00
2019-05-01T15:54:58.564Z,100.00
2019-05-01T15:56:35.402Z,100.00
2019-05-01T15:58:13.597Z,100.00
2019-05-01T15:59:52.314Z,100.00
2019-05-01T16:01:40.556Z,100.00
2019-05-01T16:03:16.582Z,100.00
2019-05-01T16:04:59.464Z,100.00
2019-05-01T16:06:38.315Z,100.00
2019-05-01T16:08:15.068Z,100.00
2019-05-01T16:09:58.438Z,100.00
2019-05-01T16:12:01.840Z,100.00
2019-05-01T16:13:37.012Z,100.00
2019-05-01T16:15:22.213Z,100.00
2019-05-01T16:16:57.653Z,100.00
2019-05-01T16:18:32.988Z,100.00
2019-05-01T16:20:08.590Z,100.00
2019-05-01T16:21:46.379Z,100.00
2019-05-01T16:23:22.616Z,100.00
2019-05-01T16:24:57.804Z,100.00
2019-05-01T16:26:34.920Z,100.00
2019-05-01T16:28:10.548Z,100.00
2019-05-01T16:29:51.099Z,100.00
2019-05-01T16:31:30.732Z,100.00
2019-05-01T16:33:11.501Z,100.00
2019-05-01T16:34:47.337Z,100.00
2019-05-01T16:36:22.429Z,100.00
2019-05-01T16:37:59.805Z,100.00
2019-05-01T16:39:54.153Z,100.00
2019-05-01T16:41:31.239Z,100.00
2019-05-01T16:43:11.450Z,100.00
2019-05-01T16:44:46.699Z,100.00
2019-05-01T16:46:21.841Z,100.00
2019-05-01T16:47:57.386Z,100.00
2019-05-01T16:49:43.380Z,100.00
2019-05-01T16:51:17.029Z,100.00
2019-05-01T16:52:52.556Z,100.00
2019-05-01T16:54:28.621Z,100.00
2019-05-01T16:56:10.985Z,100.00
2019-05-01T16:57:49.291Z,100.00
2019-05-01T16:59:24.673Z,100.00
2019-05-01T17:01:13.407Z,100.00
2019-05-01T17:03:20.652Z,100.00
2019-05-01T17:05:13.510Z,100.00
2019-05-01T17:07:12.659Z,100.00
2019-05-01T17:08:59.978Z,100.00
2019-05-01T17:10:40.638Z,100.00
2019-05-01T17:12:52.012Z,100.00
2019-05-01T17:16:21.277Z,100.00
2019-05-01T17:17:56.763Z,100.00
2019-05-01T17:19:34.815Z,100.00
2019-05-01T17:21:12.513Z,100.00
2019-05-01T17:22:52.330Z,100.00
2019-05-01T17:24:30.251Z,100.00
2019-05-01T17:26:07.672Z,100.00
2019-05-01T17:27:51.350Z,100.00
2019-05-01T17:29:40.901Z,100.00
2019-05-01T17:31:04.687Z,100.00
2019-05-01T17:32:47.217Z,100.00
2019-05-01T17:34:30.417Z,100.00
2019-05-01T17:36:06.497Z,100.00
2019-05-01T17:37:42.053Z,100.00
2019-05-01T17:39:23.036Z,100.00
2019-05-01T17:41:02.694Z,100.00
2019-05-01T17:42:39.453Z,100.00
2019-05-01T17:44:25.203Z,100.00
2019-05-01T17:46:05.812Z,100.00
2019-05-01T17:47:45.906Z,100.00
2019-05-01T17:49:25.345Z,100.00
2019-05-01T17:51:01.934Z,100.00
2019-05-01T17:52:43.292Z,100.00
2019-05-01T17:54:21.536Z,100.00
2019-05-01T17:56:01.479Z,100.00
2019-05-01T17:57:36.791Z,100.00
2019-05-01T17:59:15.028Z,100.00
2019-05-01T18:01:27.728Z,100.00
2019-05-01T18:03:14.564Z,100.00
2019-05-01T18:04:57.403Z,100.00
2019-05-01T18:06:46.415Z,100.00
2019-05-01T18:08:26.662Z,100.00
2019-05-01T18:10:02.880Z,100.00
2019-05-01T18:11:41.199Z,100.00
2019-05-01T18:13:17.660Z,100.00
2019-05-01T18:14:57.008Z,100.00
2019-05-01T18:16:34.462Z,100.00
2019-05-01T18:18:10.769Z,100.00
2019-05-01T18:19:50.077Z,100.00
2019-05-01T18:21:25.938Z,100.00
2019-05-01T18:23:23.477Z,100.00
2019-05-01T18:25:28.185Z,100.00
2019-05-01T18:27:23.866Z,100.00
2019-05-01T18:29:17.141Z,100.00
2019-05-01T18:30:56.517Z,100.00
2019-05-01T18:32:46.240Z,100.00
2019-05-01T18:34:18.808Z,100.00
2019-05-01T18:35:56.619Z,100.00
2019-05-01T18:37:39.603Z,100.00
2019-05-01T18:39:22.107Z,100.00
2019-05-01T18:41:18.116Z,100.00
2019-05-01T18:42:56.262Z,100.00
2019-05-01T18:44:33.991Z,100.00
2019-05-01T18:46:28.479Z,100.00
2019-05-01T18:48:04.735Z,100.00
2019-05-01T18:49:43.617Z,100.00
2019-05-01T18:51:24.311Z,100.00
2019-05-01T18:53:11.405Z,100.00
2019-05-01T18:54:47.745Z,100.00
2019-05-01T18:56:24.293Z,100.00
2019-05-01T18:58:05.333Z,100.00
2019-05-01T18:59:41.539Z,100.00
2019-05-01T19:01:16.818Z,100.00
2019-05-01T19:02:59.566Z,100.00
2019-05-01T19:04:41.518Z,100.00
2019-05-01T19:06:19.806Z,100.00
2019-05-01T19:07:55.008Z,100.00
2019-05-01T19:09:39.047Z,100.00
2019-05-01T19:11:18.748Z,100.00
2019-05-01T19:12:57.084Z,100.00
2019-05-01T19:14:38.536Z,100.00
2019-05-01T19:16:17.565Z,100.00
2019-05-01T19:18:05.156Z,100.00
2019-05-01T19:19:41.357Z,100.00
2019-05-01T19:21:18.637Z,100.00
2019-05-01T19:22:56.496Z,100.00
2019-05-01T19:24:32.535Z,100.00
2019-05-01T19:26:13.928Z,100.00
2019-05-01T19:27:49.428Z,100.00
2019-05-01T19:29:26.883Z,100.00
2019-05-01T19:31:03.314Z,100.00
2019-05-01T19:32:48.842Z,100.00
2019-05-01T19:34:40.550Z,100.00
2019-05-01T19:36:27.390Z,100.00
2019-05-01T19:38:07.303Z,100.00
2019-05-01T19:39:49.124Z,100.00
2019-05-01T19:41:29.366Z,100.00
2019-05-01T19:43:04.775Z,100.00
2019-05-01T19:44:43.376Z,100.00
2019-05-01T19:46:25.926Z,100.00
2019-05-01T19:48:02.968Z,100.00
2019-05-01T19:49:40.213Z,100.00
2019-05-01T19:51:23.604Z,100.00
2019-05-01T19:53:00.036Z,100.00
2019-05-01T19:54:35.869Z,100.00
2019-05-01T19:56:16.705Z,100.00
2019-05-01T19:57:54.815Z,100.00
2019-05-01T19:59:30.604Z,100.00
2019-05-01T20:01:06.925Z,100.00
2019-05-01T20:02:45.438Z,100.00
2019-05-01T20:04:33.966Z,100.00
2019-05-01T20:06:13.777Z,100.00
2019-05-01T20:07:56.138Z,100.00
2019-05-01T20:09:34.426Z,100.00
2019-05-01T20:11:28.465Z,100.00
2019-05-01T20:13:13.269Z,100.00
2019-05-01T20:14:52.303Z,100.00
2019-05-01T20:16:30.320Z,100.00
2019-05-01T20:18:06.388Z,100.00
2019-05-01T20:19:41.653Z,100.00
2019-05-01T20:21:21.433Z,100.00
2019-05-01T20:22:56.813Z,100.00
2019-05-01T20:24:34.513Z,100.00
2019-05-01T20:26:09.661Z,100.00
2019-05-01T20:27:52.155Z,100.00
2019-05-01T20:29:27.475Z,100.00
2019-05-01T20:31:07.203Z,100.00
2019-05-01T20:32:52.154Z,100.00
2019-05-01T20:34:36.305Z,100.00
2019-05-01T20:36:15.940Z,100.00
2019-05-01T20:37:56.508Z,100.00
2019-05-01T20:39:36.322Z,100.00
2019-05-01T20:41:20.414Z,100.00
2019-05-01T20:43:05.807Z,100.00
2019-05-01T20:44:44.173Z,100.00
2019-05-01T20:46:35.722Z,100.00
2019-05-01T20:48:12.323Z,100.00
2019-05-01T20:49:52.023Z,100.00
2019-05-01T20:51:27.211Z,100.00
2019-05-01T20:53:05.474Z,100.00
2019-05-01T20:54:50.155Z,100.00
2019-05-01T20:56:47.661Z,100.00
2019-05-01T20:58:26.817Z,100.00
2019-05-01T21:00:11.420Z,100.00
2019-05-01T21:01:53.871Z,100.00
2019-05-01T21:03:39.533Z,100.00
2019-05-01T21:05:28.014Z,100.00
2019-05-01T21:07:19.859Z,100.00
2019-05-01T21:09:13.172Z,100.00
2019-05-01T21:10:58.154Z,100.00
2019-05-01T21:12:33.564Z,100.00
2019-05-01T21:14:20.058Z,100.00